createdAt,value
2019-05-09T00:00:04.346Z,4.33
2019-05-09T00:03:29.355Z,4.40
2019-05-09T00:06:54.443Z,5.23
2019-05-09T00:10:17.415Z,6.77
2019-05-09T00:13:40.481Z,3.67
2019-05-09T00:17:03.871Z,3.63
2019-05-09T00:20:47.633Z,4.43
2019-05-09T00:24:10.782Z,4.33
2019-05-09T00:27:34.113Z,4.93
2019-05-09T00:31:05.557Z,3.33
2019-05-09T00:34:36.218Z,3.10
2019-05-09T00:38:19.000Z,4.10
2019-05-09T00:41:43.527Z,2.87
2019-05-09T00:45:10.216Z,2.90
2019-05-09T00:48:39.679Z,4.83
2019-05-09T00:52:03.629Z,3.03
2019-05-09T00:55:28.220Z,3.40
2019-05-09T00:58:53.235Z,2.90
2019-05-09T01:02:16.184Z,4.47
2019-05-09T01:05:39.340Z,3.37
2019-05-09T01:09:04.428Z,4.57
2019-05-09T01:12:27.491Z,4.77
2019-05-09T01:15:50.517Z,3.80
2019-05-09T01:19:14.206Z,3.33
2019-05-09T01:22:37.369Z,3.20
2019-05-09T01:26:00.548Z,5.40
2019-05-09T01:29:23.606Z,3.23
2019-05-09T01:33:06.292Z,3.63
2019-05-09T01:36:48.043Z,3.73
2019-05-09T01:40:13.203Z,4.07
2019-05-09T01:43:36.749Z,3.40
2019-05-09T01:46:59.905Z,3.43
2019-05-09T01:50:23.386Z,3.70
2019-05-09T01:53:53.187Z,4.03
2019-05-09T01:57:16.347Z,6.27
2019-05-09T02:00:39.375Z,4.13
2019-05-09T02:04:04.053Z,3.53
2019-05-09T02:07:27.317Z,9.77
2019-05-09T02:10:50.743Z,7.10
2019-05-09T02:14:16.127Z,7.03
2019-05-09T02:18:05.353Z,6.57
2019-05-09T02:21:28.855Z,6.00
2019-05-09T02:24:53.473Z,6.47
2019-05-09T02:28:16.705Z,3.77
2019-05-09T02:31:39.697Z,9.27
2019-05-09T02:35:05.250Z,12.03
2019-05-09T02:38:28.850Z,15.10
2019-05-09T02:42:05.037Z,11.67
2019-05-09T02:45:19.274Z,7.87
2019-05-09T02:48:42.619Z,9.27
2019-05-09T02:52:08.664Z,10.23
2019-05-09T02:55:30.814Z,13.93
2019-05-09T02:59:00.702Z,26.73
2019-05-09T03:02:31.148Z,14.70
2019-05-09T03:05:54.109Z,18.90
2019-05-09T03:09:19.009Z,8.87
2019-05-09T03:12:42.273Z,9.13
2019-05-09T03:16:11.893Z,8.00
2019-05-09T03:19:38.610Z,11.00
2019-05-09T03:23:00.989Z,11.90
2019-05-09T03:26:29.243Z,11.23
2019-05-09T03:29:58.704Z,19.63
2019-05-09T03:33:20.555Z,11.37
2019-05-09T03:36:43.759Z,17.90
2019-05-09T03:40:07.884Z,18.00
2019-05-09T03:43:31.447Z,12.10
2019-05-09T03:47:08.422Z,12.30
2019-05-09T03:50:31.881Z,13.87
2019-05-09T03:53:54.948Z,14.87
2019-05-09T03:57:28.216Z,17.90
2019-05-09T04:00:50.999Z,14.47
2019-05-09T04:04:14.251Z,12.13
2019-05-09T04:07:38.441Z,10.23
2019-05-09T04:11:01.813Z,10.50
2019-05-09T04:14:28.168Z,19.83
2019-05-09T04:17:51.488Z,14.40
2019-05-09T04:21:14.591Z,14.93
2019-05-09T04:24:38.377Z,14.33
2019-05-09T04:28:02.746Z,17.13
2019-05-09T04:31:28.026Z,16.27
2019-05-09T04:34:52.399Z,15.77
2019-05-09T04:38:17.747Z,13.47
2019-05-09T04:41:40.585Z,14.70
2019-05-09T04:45:14.571Z,18.40
2019-05-09T04:48:37.759Z,12.90
2019-05-09T04:52:00.822Z,12.00
2019-05-09T04:55:27.352Z,9.57
2019-05-09T04:58:50.582Z,8.87
2019-05-09T05:02:38.204Z,10.30
2019-05-09T05:06:01.559Z,11.33
2019-05-09T05:09:24.730Z,9.60
2019-05-09T05:12:48.424Z,8.87
2019-05-09T05:16:11.554Z,8.10
2019-05-09T05:19:36.209Z,8.33
2019-05-09T05:23:18.495Z,8.20
2019-05-09T05:26:41.497Z,8.80
2019-05-09T05:30:07.478Z,7.90
2019-05-09T05:33:45.707Z,10.60
2019-05-09T05:37:12.287Z,7.33
2019-05-09T05:40:43.246Z,7.00
2019-05-09T05:44:00.254Z,9.37
2019-05-09T05:47:30.050Z,13.37
2019-05-09T05:50:54.122Z,11.03
2019-05-09T05:54:21.110Z,7.90
2019-05-09T05:57:44.170Z,13.27
2019-05-09T06:01:08.203Z,12.20
2019-05-09T06:04:31.530Z,10.47
2019-05-09T06:07:57.486Z,12.30
2019-05-09T06:11:20.453Z,10.57
2019-05-09T06:14:43.563Z,8.43
2019-05-09T06:18:07.934Z,12.63
2019-05-09T06:21:31.336Z,20.23
2019-05-09T06:24:54.397Z,11.97
2019-05-09T06:28:18.256Z,17.87
2019-05-09T06:31:41.745Z,23.93
2019-05-09T06:35:05.002Z,23.50
2019-05-09T06:38:28.360Z,16.07
2019-05-09T06:41:51.629Z,16.90
2019-05-09T06:46:02.051Z,15.43
2019-05-09T06:49:31.733Z,14.87
2019-05-09T06:52:54.045Z,11.17
2019-05-09T06:56:17.831Z,14.10
2019-05-09T06:59:41.047Z,11.67
2019-05-09T07:03:14.413Z,12.10
2019-05-09T07:06:41.514Z,18.50
2019-05-09T07:10:07.407Z,17.20
2019-05-09T07:13:31.682Z,15.90
2019-05-09T07:16:55.385Z,13.13
2019-05-09T07:20:18.446Z,12.00
2019-05-09T07:23:41.475Z,5.83
2019-05-09T07:27:04.784Z,7.73
2019-05-09T07:30:57.354Z,6.00
2019-05-09T07:34:47.456Z,5.90
2019-05-09T07:38:11.329Z,6.37
2019-05-09T07:41:34.362Z,8.80
2019-05-09T07:44:59.153Z,7.93
2019-05-09T07:48:22.511Z,7.10
2019-05-09T07:51:47.649Z,7.70
2019-05-09T07:55:10.590Z,6.83
2019-05-09T07:58:33.612Z,13.62
2019-05-09T08:01:58.168Z,11.47
2019-05-09T08:05:28.168Z,11.38
2019-05-09T08:08:51.278Z,6.47
2019-05-09T08:12:14.336Z,9.40
2019-05-09T08:15:38.441Z,8.63
2019-05-09T08:19:01.842Z,6.72
2019-05-09T08:22:31.548Z,6.45
2019-05-09T08:25:51.143Z,12.70
2019-05-09T08:29:14.733Z,6.05
2019-05-09T08:32:38.059Z,10.43
2019-05-09T08:36:01.561Z,6.53
2019-05-09T08:39:24.725Z,8.15
2019-05-09T08:42:48.207Z,7.08
2019-05-09T08:46:12.334Z,7.40
2019-05-09T08:49:49.437Z,7.67
2019-05-09T08:53:12.289Z,5.85
2019-05-09T08:56:35.340Z,4.72
2019-05-09T08:59:59.033Z,6.55
2019-05-09T09:03:22.764Z,5.35
2019-05-09T09:06:48.279Z,10.32
2019-05-09T09:10:11.978Z,11.80
2019-05-09T09:13:35.043Z,5.78
2019-05-09T09:16:58.080Z,4.62
2019-05-09T09:20:22.133Z,6.67
2019-05-09T09:23:49.734Z,10.55
2019-05-09T09:27:10.789Z,6.12
2019-05-09T09:30:33.849Z,6.65
2019-05-09T09:33:58.585Z,5.20
2019-05-09T09:37:22.325Z,5.67
2019-05-09T09:40:47.584Z,3.65
2019-05-09T09:44:10.769Z,5.78
2019-05-09T09:47:33.955Z,6.20
2019-05-09T09:50:57.971Z,3.05
2019-05-09T09:54:21.568Z,5.90
2019-05-09T09:57:44.639Z,5.90
2019-05-09T10:01:28.717Z,5.50
2019-05-09T10:04:51.261Z,4.83
2019-05-09T10:08:14.432Z,4.35
2019-05-09T10:11:37.977Z,5.67
2019-05-09T10:15:29.759Z,4.60
2019-05-09T10:19:18.613Z,4.65
2019-05-09T10:22:46.503Z,3.70
2019-05-09T10:26:08.501Z,6.60
2019-05-09T10:29:31.869Z,4.05
2019-05-09T10:32:55.013Z,2.30
2019-05-09T10:36:18.126Z,1.30
2019-05-09T10:39:42.059Z,1.55
2019-05-09T10:43:35.963Z,2.00
2019-05-09T10:47:12.042Z,2.30
2019-05-09T10:50:43.172Z,1.70
2019-05-09T10:54:00.569Z,2.50
2019-05-09T10:57:23.963Z,2.22
2019-05-09T11:00:48.300Z,1.30
2019-05-09T11:04:11.663Z,1.70
2019-05-09T11:07:35.140Z,1.82
2019-05-09T11:10:58.184Z,1.50
2019-05-09T11:14:32.179Z,1.92
2019-05-09T11:17:47.429Z,1.87
2019-05-09T11:21:11.097Z,4.03
2019-05-09T11:24:44.899Z,2.58
2019-05-09T11:28:10.978Z,2.52
2019-05-09T11:31:25.072Z,3.10
2019-05-09T11:34:48.741Z,3.20
2019-05-09T11:38:12.343Z,2.75
2019-05-09T11:41:38.384Z,4.75
2019-05-09T11:45:01.863Z,3.35
2019-05-09T11:48:25.029Z,4.17
2019-05-09T11:51:48.383Z,3.60
2019-05-09T11:55:28.814Z,2.47
2019-05-09T11:58:37.961Z,3.98
2019-05-09T12:02:01.427Z,3.77
2019-05-09T12:05:24.445Z,2.45
2019-05-09T12:08:48.254Z,2.92
2019-05-09T12:12:11.781Z,3.30
2019-05-09T12:15:34.849Z,4.62
2019-05-09T12:18:58.382Z,2.22
2019-05-09T12:22:21.828Z,1.98
2019-05-09T12:25:44.967Z,2.40
2019-05-09T12:29:08.763Z,3.87
2019-05-09T12:32:32.245Z,2.22
2019-05-09T12:35:55.373Z,2.80
2019-05-09T12:39:18.910Z,1.95
2019-05-09T12:42:42.252Z,2.35
2019-05-09T12:46:08.461Z,2.95
2019-05-09T12:49:30.284Z,3.00
2019-05-09T12:52:53.385Z,4.55
2019-05-09T12:56:18.790Z,3.83
2019-05-09T12:59:49.004Z,2.60
2019-05-09T13:03:08.392Z,2.58
2019-05-09T13:06:31.735Z,2.80
2019-05-09T13:09:54.754Z,2.85
2019-05-09T13:13:19.649Z,3.08
2019-05-09T13:17:04.449Z,3.58
2019-05-09T13:20:28.582Z,2.62
2019-05-09T13:23:52.580Z,3.35
2019-05-09T13:27:15.643Z,3.12
2019-05-09T13:30:38.825Z,5.42
2019-05-09T13:34:02.022Z,3.10
2019-05-09T13:37:29.369Z,2.33
2019-05-09T13:40:53.470Z,2.33
2019-05-09T13:44:17.857Z,3.35
2019-05-09T13:47:40.871Z,5.80
2019-05-09T13:51:04.056Z,2.80
2019-05-09T13:54:28.511Z,3.67
2019-05-09T13:57:51.841Z,7.03
2019-05-09T14:01:17.417Z,4.22
2019-05-09T14:04:40.342Z,3.37
2019-05-09T14:08:04.454Z,3.70
2019-05-09T14:11:29.203Z,5.55
2019-05-09T14:14:52.517Z,4.20
2019-05-09T14:18:16.630Z,4.80
2019-05-09T14:21:40.729Z,4.47
2019-05-09T14:25:07.166Z,4.75
2019-05-09T14:28:29.291Z,4.28
2019-05-09T14:31:52.390Z,4.40
2019-05-09T14:35:17.946Z,3.83
2019-05-09T14:38:40.509Z,4.67
2019-05-09T14:42:03.598Z,2.77
2019-05-09T14:45:27.990Z,4.12
2019-05-09T14:48:51.126Z,4.17
2019-05-09T14:52:14.141Z,2.50
2019-05-09T14:55:38.804Z,2.15
2019-05-09T14:59:02.227Z,1.77
2019-05-09T15:02:25.299Z,2.92
2019-05-09T15:05:48.425Z,1.80
2019-05-09T15:09:11.447Z,2.15
2019-05-09T15:12:34.656Z,2.00
2019-05-09T15:15:58.033Z,4.75
2019-05-09T15:19:21.283Z,1.82
2019-05-09T15:22:44.377Z,3.25
2019-05-09T15:26:07.809Z,3.90
2019-05-09T15:29:31.105Z,1.95
2019-05-09T15:32:54.183Z,2.50
2019-05-09T15:36:19.217Z,2.20
2019-05-09T15:39:42.403Z,2.00
2019-05-09T15:43:08.136Z,1.50
2019-05-09T15:46:38.420Z,3.05
2019-05-09T15:50:15.481Z,1.50
2019-05-09T15:53:27.828Z,1.80
2019-05-09T15:56:50.976Z,3.17
2019-05-09T16:00:19.084Z,1.40
2019-05-09T16:03:43.226Z,2.75
2019-05-09T16:07:06.325Z,1.57
2019-05-09T16:10:29.702Z,1.45
2019-05-09T16:13:53.532Z,2.95
2019-05-09T16:17:19.102Z,1.57
2019-05-09T16:20:42.600Z,1.47
2019-05-09T16:24:08.168Z,2.27
2019-05-09T16:27:31.028Z,2.08
2019-05-09T16:30:58.562Z,3.12
2019-05-09T16:34:21.693Z,17.07
2019-05-09T16:38:00.792Z,21.82
2019-05-09T16:41:12.031Z,4.62
2019-05-09T16:44:41.713Z,3.67
2019-05-09T16:48:04.748Z,6.55
2019-05-09T16:51:28.859Z,3.42
2019-05-09T16:55:02.865Z,2.83
2019-05-09T16:58:27.442Z,2.22
2019-05-09T17:01:50.734Z,3.02
2019-05-09T17:05:14.069Z,1.55
2019-05-09T17:08:38.557Z,1.62
2019-05-09T17:12:01.636Z,2.75
2019-05-09T17:15:25.059Z,1.32
2019-05-09T17:18:50.014Z,3.33
2019-05-09T17:22:17.811Z,2.52
2019-05-09T17:25:40.789Z,1.95
2019-05-09T17:29:03.934Z,2.92
2019-05-09T17:32:28.506Z,1.80
2019-05-09T17:35:51.742Z,2.17
2019-05-09T17:39:15.087Z,2.30
2019-05-09T17:42:38.305Z,2.83
2019-05-09T17:46:01.834Z,2.12
2019-05-09T17:49:24.892Z,1.85
2019-05-09T17:52:48.212Z,1.90
2019-05-09T17:56:11.343Z,2.17
2019-05-09T17:59:34.575Z,2.55
2019-05-09T18:02:58.045Z,2.30
2019-05-09T18:06:21.247Z,5.40
2019-05-09T18:09:45.419Z,3.00
2019-05-09T18:13:08.416Z,2.62
2019-05-09T18:16:31.493Z,4.12
2019-05-09T18:19:54.685Z,3.42
2019-05-09T18:23:22.656Z,11.43
2019-05-09T18:26:47.445Z,4.35
2019-05-09T18:30:10.904Z,3.08
2019-05-09T18:33:58.216Z,9.13
2019-05-09T18:37:21.915Z,4.22
2019-05-09T18:40:45.021Z,4.05
2019-05-09T18:44:08.315Z,8.00
2019-05-09T18:47:31.390Z,4.08
2019-05-09T18:50:54.437Z,5.28
2019-05-09T18:54:17.656Z,7.97
2019-05-09T18:57:40.707Z,5.92
2019-05-09T19:01:03.994Z,5.97
2019-05-09T19:04:27.826Z,8.98
2019-05-09T19:07:50.978Z,4.70
2019-05-09T19:11:14.452Z,5.87
2019-05-09T19:14:37.732Z,11.03
2019-05-09T19:18:07.545Z,10.03
2019-05-09T19:21:37.484Z,9.87
2019-05-09T19:25:00.837Z,7.00
2019-05-09T19:28:24.539Z,5.60
2019-05-09T19:31:48.130Z,4.67
2019-05-09T19:35:11.790Z,3.13
2019-05-09T19:38:34.953Z,4.00
2019-05-09T19:41:59.386Z,3.20
2019-05-09T19:45:22.954Z,3.80
2019-05-09T19:48:46.674Z,3.23
2019-05-09T19:52:10.507Z,3.37
2019-05-09T19:55:36.361Z,5.27
2019-05-09T19:59:02.428Z,5.30
2019-05-09T20:02:25.552Z,4.97
2019-05-09T20:05:48.620Z,4.87
2019-05-09T20:09:19.001Z,6.27
2019-05-09T20:12:48.178Z,7.17
2019-05-09T20:16:11.606Z,9.90
2019-05-09T20:19:34.689Z,11.77
2019-05-09T20:22:58.038Z,10.30
2019-05-09T20:26:21.374Z,9.17
2019-05-09T20:29:44.462Z,9.33
2019-05-09T20:33:08.836Z,10.60
2019-05-09T20:36:31.919Z,8.27
2019-05-09T20:39:55.025Z,8.53
2019-05-09T20:43:18.128Z,11.63
2019-05-09T20:46:41.269Z,8.53
2019-05-09T20:50:04.413Z,11.43
2019-05-09T20:53:27.719Z,9.73
2019-05-09T20:56:50.830Z,11.53
2019-05-09T21:00:13.917Z,12.40
2019-05-09T21:03:36.956Z,12.17
2019-05-09T21:07:00.031Z,12.30
2019-05-09T21:10:25.099Z,13.20
2019-05-09T21:13:49.124Z,15.90
2019-05-09T21:17:12.519Z,15.17
2019-05-09T21:20:35.739Z,15.23
2019-05-09T21:23:58.886Z,14.57
2019-05-09T21:27:22.002Z,15.37
2019-05-09T21:30:45.097Z,14.00
2019-05-09T21:34:08.131Z,14.77
2019-05-09T21:37:31.155Z,12.13
2019-05-09T21:40:54.292Z,10.83
2019-05-09T21:44:17.396Z,14.13
2019-05-09T21:47:40.490Z,14.23
2019-05-09T21:51:03.608Z,20.37
2019-05-09T21:54:26.699Z,18.50
2019-05-09T21:57:49.788Z,14.43
2019-05-09T22:01:16.781Z,15.10
2019-05-09T22:04:39.989Z,13.23
2019-05-09T22:08:04.153Z,16.37
2019-05-09T22:11:29.840Z,15.97
2019-05-09T22:14:53.106Z,14.47
2019-05-09T22:18:16.390Z,13.33
2019-05-09T22:21:39.587Z,16.87
2019-05-09T22:25:02.807Z,16.07
2019-05-09T22:28:26.266Z,12.03
2019-05-09T22:31:49.455Z,15.17
2019-05-09T22:35:12.993Z,13.97
2019-05-09T22:38:36.062Z,11.87
2019-05-09T22:42:00.415Z,15.10
2019-05-09T22:45:23.516Z,14.33
2019-05-09T22:48:47.412Z,11.33
2019-05-09T22:52:10.637Z,13.20
2019-05-09T22:55:33.683Z,16.23
2019-05-09T22:58:56.698Z,13.13
2019-05-09T23:02:19.832Z,13.60
2019-05-09T23:05:43.032Z,10.90
2019-05-09T23:09:06.983Z,11.83
2019-05-09T23:12:30.005Z,12.67
2019-05-09T23:15:53.094Z,13.97
2019-05-09T23:19:16.144Z,18.83
2019-05-09T23:22:39.249Z,15.30
2019-05-09T23:26:02.271Z,24.40
2019-05-09T23:29:25.273Z,19.83
2019-05-09T23:32:49.277Z,10.53
2019-05-09T23:36:12.612Z,14.87
2019-05-09T23:39:41.440Z,15.03
2019-05-09T23:43:04.443Z,13.30
2019-05-09T23:46:30.510Z,13.80
2019-05-09T23:49:53.557Z,11.37
2019-05-09T23:53:33.195Z,11.80
2019-05-09T23:57:14.923Z,10.13
